sensor_id;sensor_type;location;lat;lon;timestamp;P1;durP1;ratioP1;P2;durP2;ratioP2
76714;SDS011;65644;44.990;20.288;2023-03-05T00:00:18;84.10;;;52.60;;
76714;SDS011;65644;44.990;20.288;2023-03-05T00:02:44;83.90;;;50.17;;
76714;SDS011;65644;44.990;20.288;2023-03-05T00:05:10;83.03;;;52.13;;
76714;SDS011;65644;44.990;20.288;2023-03-05T00:07:36;85.10;;;51.40;;
76714;SDS011;65644;44.990;20.288;2023-03-05T00:10:03;77.53;;;47.47;;
76714;SDS011;65644;44.990;20.288;2023-03-05T00:12:29;80.23;;;49.40;;
76714;SDS011;65644;44.990;20.288;2023-03-05T00:14:55;71.50;;;46.37;;
76714;SDS011;65644;44.990;20.288;2023-03-05T00:17:21;77.47;;;47.70;;
76714;SDS011;65644;44.990;20.288;2023-03-05T00:19:47;76.07;;;46.20;;
76714;SDS011;65644;44.990;20.288;2023-03-05T00:22:13;68.53;;;45.23;;
76714;SDS011;65644;44.990;20.288;2023-03-05T00:24:40;71.83;;;43.83;;
76714;SDS011;65644;44.990;20.288;2023-03-05T00:27:06;71.93;;;43.17;;
76714;SDS011;65644;44.990;20.288;2023-03-05T00:29:32;65.40;;;41.80;;
76714;SDS011;65644;44.990;20.288;2023-03-05T00:31:58;62.17;;;39.50;;
76714;SDS011;65644;44.990;20.288;2023-03-05T00:34:24;67.60;;;40.57;;
76714;SDS011;65644;44.990;20.288;2023-03-05T00:36:51;62.37;;;39.87;;
76714;SDS011;65644;44.990;20.288;2023-03-05T00:39:19;66.20;;;39.77;;
76714;SDS011;65644;44.990;20.288;2023-03-05T00:41:45;61.87;;;38.93;;
76714;SDS011;65644;44.990;20.288;2023-03-05T00:44:11;64.13;;;38.47;;
76714;SDS011;65644;44.990;20.288;2023-03-05T00:46:38;62.67;;;37.67;;
76714;SDS011;65644;44.990;20.288;2023-03-05T00:49:04;62.20;;;36.73;;
76714;SDS011;65644;44.990;20.288;2023-03-05T00:51:30;59.43;;;37.20;;
76714;SDS011;65644;44.990;20.288;2023-03-05T00:53:57;55.80;;;34.40;;
76714;SDS011;65644;44.990;20.288;2023-03-05T00:56:23;56.23;;;34.80;;
76714;SDS011;65644;44.990;20.288;2023-03-05T00:58:49;56.60;;;34.63;;
76714;SDS011;65644;44.990;20.288;2023-03-05T01:01:15;56.23;;;34.87;;
76714;SDS011;65644;44.990;20.288;2023-03-05T01:03:41;55.07;;;33.37;;
76714;SDS011;65644;44.990;20.288;2023-03-05T01:06:09;53.67;;;33.80;;
76714;SDS011;65644;44.990;20.288;2023-03-05T01:08:35;52.73;;;32.43;;
76714;SDS011;65644;44.990;20.288;2023-03-05T01:11:02;51.57;;;32.50;;
76714;SDS011;65644;44.990;20.288;2023-03-05T01:13:28;53.77;;;33.43;;
76714;SDS011;65644;44.990;20.288;2023-03-05T01:15:54;52.57;;;33.00;;
76714;SDS011;65644;44.990;20.288;2023-03-05T01:18:21;56.67;;;34.20;;
76714;SDS011;65644;44.990;20.288;2023-03-05T01:20:47;56.23;;;34.47;;
76714;SDS011;65644;44.990;20.288;2023-03-05T01:23:13;52.83;;;32.43;;
76714;SDS011;65644;44.990;20.288;2023-03-05T01:25:40;53.07;;;32.57;;
76714;SDS011;65644;44.990;20.288;2023-03-05T01:28:06;49.10;;;31.00;;
76714;SDS011;65644;44.990;20.288;2023-03-05T01:30:33;49.70;;;31.50;;
76714;SDS011;65644;44.990;20.288;2023-03-05T01:32:59;50.17;;;30.17;;
76714;SDS011;65644;44.990;20.288;2023-03-05T01:35:26;49.70;;;30.40;;
76714;SDS011;65644;44.990;20.288;2023-03-05T01:37:52;49.67;;;30.40;;
76714;SDS011;65644;44.990;20.288;2023-03-05T01:40:20;49.00;;;30.30;;
76714;SDS011;65644;44.990;20.288;2023-03-05T01:42:47;45.70;;;28.20;;
76714;SDS011;65644;44.990;20.288;2023-03-05T01:45:15;44.37;;;26.47;;
76714;SDS011;65644;44.990;20.288;2023-03-05T01:47:41;41.03;;;25.40;;
76714;SDS011;65644;44.990;20.288;2023-03-05T01:50:08;43.40;;;26.83;;
76714;SDS011;65644;44.990;20.288;2023-03-05T01:52:35;38.67;;;25.67;;
76714;SDS011;65644;44.990;20.288;2023-03-05T01:55:03;39.63;;;25.07;;
76714;SDS011;65644;44.990;20.288;2023-03-05T01:59:58;38.73;;;24.73;;
76714;SDS011;65644;44.990;20.288;2023-03-05T02:02:26;41.40;;;25.43;;
76714;SDS011;65644;44.990;20.288;2023-03-05T02:07:42;41.67;;;25.63;;
76714;SDS011;65644;44.990;20.288;2023-03-05T02:10:16;40.13;;;26.17;;
76714;SDS011;65644;44.990;20.288;2023-03-05T02:12:42;41.53;;;25.47;;
76714;SDS011;65644;44.990;20.288;2023-03-05T02:15:08;39.00;;;25.63;;
76714;SDS011;65644;44.990;20.288;2023-03-05T02:17:34;44.73;;;26.00;;
76714;SDS011;65644;44.990;20.288;2023-03-05T02:20:11;39.93;;;25.80;;
76714;SDS011;65644;44.990;20.288;2023-03-05T02:22:38;38.23;;;24.83;;
76714;SDS011;65644;44.990;20.288;2023-03-05T02:25:17;40.20;;;24.93;;
76714;SDS011;65644;44.990;20.288;2023-03-05T02:27:55;38.40;;;24.13;;
76714;SDS011;65644;44.990;20.288;2023-03-05T02:30:23;41.97;;;25.00;;
76714;SDS011;65644;44.990;20.288;2023-03-05T02:32:49;36.83;;;22.73;;
76714;SDS011;65644;44.990;20.288;2023-03-05T02:35:15;42.77;;;24.10;;
76714;SDS011;65644;44.990;20.288;2023-03-05T02:37:41;41.50;;;23.97;;
76714;SDS011;65644;44.990;20.288;2023-03-05T02:40:08;37.27;;;22.43;;
76714;SDS011;65644;44.990;20.288;2023-03-05T02:42:34;36.60;;;22.63;;
76714;SDS011;65644;44.990;20.288;2023-03-05T02:45:01;33.43;;;22.43;;
76714;SDS011;65644;44.990;20.288;2023-03-05T02:47:27;32.27;;;21.77;;
76714;SDS011;65644;44.990;20.288;2023-03-05T02:49:53;32.87;;;20.83;;
76714;SDS011;65644;44.990;20.288;2023-03-05T02:52:20;35.20;;;22.67;;
76714;SDS011;65644;44.990;20.288;2023-03-05T02:54:47;35.07;;;22.67;;
76714;SDS011;65644;44.990;20.288;2023-03-05T02:57:13;35.57;;;21.70;;
76714;SDS011;65644;44.990;20.288;2023-03-05T02:59:39;35.03;;;21.63;;
76714;SDS011;65644;44.990;20.288;2023-03-05T03:02:05;32.90;;;21.50;;
76714;SDS011;65644;44.990;20.288;2023-03-05T03:04:32;35.00;;;21.10;;
76714;SDS011;65644;44.990;20.288;2023-03-05T03:06:58;36.77;;;21.90;;
76714;SDS011;65644;44.990;20.288;2023-03-05T03:09:24;34.33;;;21.20;;
76714;SDS011;65644;44.990;20.288;2023-03-05T03:11:51;34.80;;;21.43;;
76714;SDS011;65644;44.990;20.288;2023-03-05T03:14:17;33.97;;;20.27;;
76714;SDS011;65644;44.990;20.288;2023-03-05T03:16:43;35.63;;;21.53;;
76714;SDS011;65644;44.990;20.288;2023-03-05T03:19:09;35.00;;;21.37;;
76714;SDS011;65644;44.990;20.288;2023-03-05T03:21:35;33.03;;;20.47;;
76714;SDS011;65644;44.990;20.288;2023-03-05T03:24:01;31.73;;;19.00;;
76714;SDS011;65644;44.990;20.288;2023-03-05T03:26:27;31.23;;;19.23;;
76714;SDS011;65644;44.990;20.288;2023-03-05T03:28:54;30.70;;;18.63;;
76714;SDS011;65644;44.990;20.288;2023-03-05T03:31:20;26.83;;;16.93;;
76714;SDS011;65644;44.990;20.288;2023-03-05T03:33:46;25.87;;;17.07;;
76714;SDS011;65644;44.990;20.288;2023-03-05T03:36:12;23.93;;;16.23;;
76714;SDS011;65644;44.990;20.288;2023-03-05T03:38:38;28.10;;;17.07;;
76714;SDS011;65644;44.990;20.288;2023-03-05T03:41:05;27.20;;;14.90;;
76714;SDS011;65644;44.990;20.288;2023-03-05T03:43:32;25.57;;;15.50;;
76714;SDS011;65644;44.990;20.288;2023-03-05T03:45:58;25.60;;;14.97;;
76714;SDS011;65644;44.990;20.288;2023-03-05T03:48:24;24.07;;;14.10;;
76714;SDS011;65644;44.990;20.288;2023-03-05T03:50:50;21.27;;;14.20;;
76714;SDS011;65644;44.990;20.288;2023-03-05T03:53:16;21.97;;;13.40;;
76714;SDS011;65644;44.990;20.288;2023-03-05T03:55:43;22.97;;;13.67;;
76714;SDS011;65644;44.990;20.288;2023-03-05T03:58:10;21.27;;;12.20;;
76714;SDS011;65644;44.990;20.288;2023-03-05T04:00:37;21.90;;;13.30;;
76714;SDS011;65644;44.990;20.288;2023-03-05T04:03:03;20.80;;;12.80;;
76714;SDS011;65644;44.990;20.288;2023-03-05T04:05:29;22.33;;;12.87;;
76714;SDS011;65644;44.990;20.288;2023-03-05T04:07:55;18.93;;;12.23;;
76714;SDS011;65644;44.990;20.288;2023-03-05T04:10:22;18.87;;;12.37;;
76714;SDS011;65644;44.990;20.288;2023-03-05T04:12:49;17.37;;;11.93;;
76714;SDS011;65644;44.990;20.288;2023-03-05T04:15:15;18.50;;;11.10;;
76714;SDS011;65644;44.990;20.288;2023-03-05T04:17:41;18.47;;;12.00;;
76714;SDS011;65644;44.990;20.288;2023-03-05T04:20:07;16.57;;;11.43;;
76714;SDS011;65644;44.990;20.288;2023-03-05T04:22:34;18.43;;;11.97;;
76714;SDS011;65644;44.990;20.288;2023-03-05T04:25:00;17.10;;;11.23;;
76714;SDS011;65644;44.990;20.288;2023-03-05T04:27:31;18.60;;;11.23;;
76714;SDS011;65644;44.990;20.288;2023-03-05T04:29:58;17.07;;;11.20;;
76714;SDS011;65644;44.990;20.288;2023-03-05T04:32:24;18.80;;;12.00;;
76714;SDS011;65644;44.990;20.288;2023-03-05T04:34:50;18.83;;;11.73;;
76714;SDS011;65644;44.990;20.288;2023-03-05T04:37:16;17.23;;;11.93;;
76714;SDS011;65644;44.990;20.288;2023-03-05T04:39:42;19.97;;;11.80;;
76714;SDS011;65644;44.990;20.288;2023-03-05T04:42:08;15.73;;;11.37;;
76714;SDS011;65644;44.990;20.288;2023-03-05T04:44:35;19.17;;;11.87;;
76714;SDS011;65644;44.990;20.288;2023-03-05T04:47:01;15.97;;;11.07;;
76714;SDS011;65644;44.990;20.288;2023-03-05T04:49:27;15.80;;;11.27;;
76714;SDS011;65644;44.990;20.288;2023-03-05T04:51:54;15.93;;;10.27;;
76714;SDS011;65644;44.990;20.288;2023-03-05T04:54:21;15.67;;;11.00;;
76714;SDS011;65644;44.990;20.288;2023-03-05T04:56:47;17.10;;;10.33;;
76714;SDS011;65644;44.990;20.288;2023-03-05T04:59:13;16.67;;;11.17;;
76714;SDS011;65644;44.990;20.288;2023-03-05T05:01:39;18.73;;;11.33;;
76714;SDS011;65644;44.990;20.288;2023-03-05T05:04:05;16.77;;;11.23;;
76714;SDS011;65644;44.990;20.288;2023-03-05T05:06:35;17.87;;;11.43;;
76714;SDS011;65644;44.990;20.288;2023-03-05T05:09:15;16.40;;;10.50;;
76714;SDS011;65644;44.990;20.288;2023-03-05T05:11:41;16.63;;;10.90;;
76714;SDS011;65644;44.990;20.288;2023-03-05T05:14:07;18.33;;;11.37;;
76714;SDS011;65644;44.990;20.288;2023-03-05T05:16:33;16.77;;;11.17;;
76714;SDS011;65644;44.990;20.288;2023-03-05T05:18:59;20.47;;;11.60;;
76714;SDS011;65644;44.990;20.288;2023-03-05T05:21:25;17.40;;;11.20;;
76714;SDS011;65644;44.990;20.288;2023-03-05T05:23:51;18.47;;;11.03;;
76714;SDS011;65644;44.990;20.288;2023-03-05T05:26:17;15.37;;;10.60;;
76714;SDS011;65644;44.990;20.288;2023-03-05T05:28:43;14.43;;;9.83;;
76714;SDS011;65644;44.990;20.288;2023-03-05T05:31:11;13.90;;;9.70;;
76714;SDS011;65644;44.990;20.288;2023-03-05T05:33:37;14.20;;;9.33;;
76714;SDS011;65644;44.990;20.288;2023-03-05T05:36:03;14.67;;;9.47;;
76714;SDS011;65644;44.990;20.288;2023-03-05T05:38:30;12.37;;;9.30;;
76714;SDS011;65644;44.990;20.288;2023-03-05T05:41:02;16.80;;;9.90;;
76714;SDS011;65644;44.990;20.288;2023-03-05T05:43:28;13.63;;;10.00;;
76714;SDS011;65644;44.990;20.288;2023-03-05T05:45:57;15.43;;;10.33;;
76714;SDS011;65644;44.990;20.288;2023-03-05T05:48:23;11.87;;;9.10;;
76714;SDS011;65644;44.990;20.288;2023-03-05T05:50:49;17.87;;;10.90;;
76714;SDS011;65644;44.990;20.288;2023-03-05T05:53:15;16.23;;;10.43;;
76714;SDS011;65644;44.990;20.288;2023-03-05T05:55:41;15.23;;;10.10;;
76714;SDS011;65644;44.990;20.288;2023-03-05T05:58:07;15.57;;;10.17;;
76714;SDS011;65644;44.990;20.288;2023-03-05T06:00:33;15.17;;;9.77;;
76714;SDS011;65644;44.990;20.288;2023-03-05T06:02:59;16.17;;;9.80;;
76714;SDS011;65644;44.990;20.288;2023-03-05T06:05:25;14.07;;;10.23;;
76714;SDS011;65644;44.990;20.288;2023-03-05T06:07:51;13.43;;;9.43;;
76714;SDS011;65644;44.990;20.288;2023-03-05T06:10:17;20.03;;;11.20;;
76714;SDS011;65644;44.990;20.288;2023-03-05T06:12:43;17.90;;;11.20;;
76714;SDS011;65644;44.990;20.288;2023-03-05T06:15:09;13.40;;;9.53;;
76714;SDS011;65644;44.990;20.288;2023-03-05T06:17:35;17.67;;;9.70;;
76714;SDS011;65644;44.990;20.288;2023-03-05T06:20:02;14.03;;;9.63;;
76714;SDS011;65644;44.990;20.288;2023-03-05T06:22:28;15.93;;;9.30;;
76714;SDS011;65644;44.990;20.288;2023-03-05T06:24:54;13.63;;;9.00;;
76714;SDS011;65644;44.990;20.288;2023-03-05T06:27:20;14.93;;;9.17;;
76714;SDS011;65644;44.990;20.288;2023-03-05T06:29:47;15.13;;;9.50;;
76714;SDS011;65644;44.990;20.288;2023-03-05T06:32:16;14.33;;;9.43;;
76714;SDS011;65644;44.990;20.288;2023-03-05T06:34:42;14.03;;;9.97;;
76714;SDS011;65644;44.990;20.288;2023-03-05T06:37:08;16.07;;;9.10;;
76714;SDS011;65644;44.990;20.288;2023-03-05T06:39:34;14.20;;;9.40;;
76714;SDS011;65644;44.990;20.288;2023-03-05T06:42:00;14.30;;;8.97;;
76714;SDS011;65644;44.990;20.288;2023-03-05T06:44:26;13.40;;;9.37;;
76714;SDS011;65644;44.990;20.288;2023-03-05T06:46:52;14.50;;;9.10;;
76714;SDS011;65644;44.990;20.288;2023-03-05T06:49:18;15.07;;;9.63;;
76714;SDS011;65644;44.990;20.288;2023-03-05T06:51:44;15.37;;;10.23;;
76714;SDS011;65644;44.990;20.288;2023-03-05T06:54:11;12.67;;;9.43;;
76714;SDS011;65644;44.990;20.288;2023-03-05T06:56:39;14.53;;;9.47;;
76714;SDS011;65644;44.990;20.288;2023-03-05T06:59:05;14.40;;;9.67;;
76714;SDS011;65644;44.990;20.288;2023-03-05T07:01:31;12.53;;;9.90;;
76714;SDS011;65644;44.990;20.288;2023-03-05T07:03:57;17.00;;;10.77;;
76714;SDS011;65644;44.990;20.288;2023-03-05T07:06:27;15.10;;;11.27;;
76714;SDS011;65644;44.990;20.288;2023-03-05T07:08:54;15.40;;;10.27;;
76714;SDS011;65644;44.990;20.288;2023-03-05T07:11:21;16.30;;;10.77;;
76714;SDS011;65644;44.990;20.288;2023-03-05T07:13:47;17.97;;;10.23;;
76714;SDS011;65644;44.990;20.288;2023-03-05T07:16:14;14.87;;;10.50;;
76714;SDS011;65644;44.990;20.288;2023-03-05T07:18:41;14.60;;;9.73;;
76714;SDS011;65644;44.990;20.288;2023-03-05T07:21:07;15.67;;;9.90;;
76714;SDS011;65644;44.990;20.288;2023-03-05T07:23:34;15.43;;;10.73;;
76714;SDS011;65644;44.990;20.288;2023-03-05T07:26:01;15.35;;;11.00;;
76714;SDS011;65644;44.990;20.288;2023-03-05T07:28:27;16.23;;;9.70;;
76714;SDS011;65644;44.990;20.288;2023-03-05T07:30:57;17.80;;;10.60;;
76714;SDS011;65644;44.990;20.288;2023-03-05T07:33:23;14.45;;;10.32;;
76714;SDS011;65644;44.990;20.288;2023-03-05T07:35:49;12.93;;;10.15;;
76714;SDS011;65644;44.990;20.288;2023-03-05T07:38:15;15.68;;;9.63;;
76714;SDS011;65644;44.990;20.288;2023-03-05T07:40:41;13.18;;;9.43;;
76714;SDS011;65644;44.990;20.288;2023-03-05T07:43:07;12.80;;;9.73;;
76714;SDS011;65644;44.990;20.288;2023-03-05T07:45:34;12.23;;;9.52;;
76714;SDS011;65644;44.990;20.288;2023-03-05T07:48:00;12.38;;;9.88;;
76714;SDS011;65644;44.990;20.288;2023-03-05T07:50:26;13.63;;;9.88;;
76714;SDS011;65644;44.990;20.288;2023-03-05T07:52:52;13.63;;;8.80;;
76714;SDS011;65644;44.990;20.288;2023-03-05T07:55:18;14.98;;;9.55;;
76714;SDS011;65644;44.990;20.288;2023-03-05T07:57:44;16.83;;;10.57;;
76714;SDS011;65644;44.990;20.288;2023-03-05T08:00:10;13.40;;;9.82;;
76714;SDS011;65644;44.990;20.288;2023-03-05T08:02:36;14.30;;;9.75;;
76714;SDS011;65644;44.990;20.288;2023-03-05T08:05:02;14.75;;;10.25;;
76714;SDS011;65644;44.990;20.288;2023-03-05T08:07:28;17.10;;;11.27;;
76714;SDS011;65644;44.990;20.288;2023-03-05T08:09:54;13.80;;;10.45;;
76714;SDS011;65644;44.990;20.288;2023-03-05T08:12:20;14.23;;;9.63;;
76714;SDS011;65644;44.990;20.288;2023-03-05T08:14:47;15.02;;;10.52;;
76714;SDS011;65644;44.990;20.288;2023-03-05T08:17:13;14.48;;;9.70;;
76714;SDS011;65644;44.990;20.288;2023-03-05T08:19:39;12.68;;;9.75;;
76714;SDS011;65644;44.990;20.288;2023-03-05T08:22:05;13.02;;;9.63;;
76714;SDS011;65644;44.990;20.288;2023-03-05T08:24:31;13.25;;;9.90;;
76714;SDS011;65644;44.990;20.288;2023-03-05T08:26:57;14.60;;;9.73;;
76714;SDS011;65644;44.990;20.288;2023-03-05T08:29:23;14.18;;;10.05;;
76714;SDS011;65644;44.990;20.288;2023-03-05T08:31:50;14.75;;;10.77;;
76714;SDS011;65644;44.990;20.288;2023-03-05T08:34:17;13.63;;;9.98;;
76714;SDS011;65644;44.990;20.288;2023-03-05T08:36:43;13.93;;;9.77;;
76714;SDS011;65644;44.990;20.288;2023-03-05T08:39:09;12.70;;;9.80;;
76714;SDS011;65644;44.990;20.288;2023-03-05T08:41:36;12.05;;;9.25;;
76714;SDS011;65644;44.990;20.288;2023-03-05T08:44:02;15.15;;;9.73;;
76714;SDS011;65644;44.990;20.288;2023-03-05T08:46:28;15.02;;;9.02;;
76714;SDS011;65644;44.990;20.288;2023-03-05T08:48:54;13.10;;;9.13;;
76714;SDS011;65644;44.990;20.288;2023-03-05T08:51:21;13.45;;;9.20;;
76714;SDS011;65644;44.990;20.288;2023-03-05T08:53:50;15.00;;;9.82;;
76714;SDS011;65644;44.990;20.288;2023-03-05T08:56:19;13.45;;;9.80;;
76714;SDS011;65644;44.990;20.288;2023-03-05T08:58:45;14.73;;;10.63;;
76714;SDS011;65644;44.990;20.288;2023-03-05T09:01:12;14.93;;;10.27;;
76714;SDS011;65644;44.990;20.288;2023-03-05T09:03:38;16.23;;;9.93;;
76714;SDS011;65644;44.990;20.288;2023-03-05T09:06:05;15.65;;;11.05;;
76714;SDS011;65644;44.990;20.288;2023-03-05T09:08:32;16.33;;;10.35;;
76714;SDS011;65644;44.990;20.288;2023-03-05T09:11:00;12.93;;;9.10;;
76714;SDS011;65644;44.990;20.288;2023-03-05T09:13:26;13.25;;;10.02;;
76714;SDS011;65644;44.990;20.288;2023-03-05T09:15:53;12.13;;;9.93;;
76714;SDS011;65644;44.990;20.288;2023-03-05T09:18:19;11.35;;;8.65;;
76714;SDS011;65644;44.990;20.288;2023-03-05T09:20:45;12.00;;;8.23;;
76714;SDS011;65644;44.990;20.288;2023-03-05T09:23:11;12.90;;;9.05;;
76714;SDS011;65644;44.990;20.288;2023-03-05T09:25:38;14.95;;;9.05;;
76714;SDS011;65644;44.990;20.288;2023-03-05T09:28:05;12.98;;;8.63;;
76714;SDS011;65644;44.990;20.288;2023-03-05T09:30:31;11.70;;;8.25;;
76714;SDS011;65644;44.990;20.288;2023-03-05T09:32:59;10.82;;;7.53;;
76714;SDS011;65644;44.990;20.288;2023-03-05T09:35:25;11.68;;;7.75;;
76714;SDS011;65644;44.990;20.288;2023-03-05T09:37:51;12.10;;;7.25;;
76714;SDS011;65644;44.990;20.288;2023-03-05T09:40:17;11.82;;;8.32;;
76714;SDS011;65644;44.990;20.288;2023-03-05T09:43:01;10.20;;;7.65;;
76714;SDS011;65644;44.990;20.288;2023-03-05T09:45:39;9.45;;;6.78;;
76714;SDS011;65644;44.990;20.288;2023-03-05T09:48:20;11.07;;;7.35;;
76714;SDS011;65644;44.990;20.288;2023-03-05T09:50:50;12.30;;;6.95;;
76714;SDS011;65644;44.990;20.288;2023-03-05T09:55:49;10.27;;;6.68;;
76714;SDS011;65644;44.990;20.288;2023-03-05T09:58:17;10.40;;;7.50;;
76714;SDS011;65644;44.990;20.288;2023-03-05T10:00:44;13.27;;;7.97;;
76714;SDS011;65644;44.990;20.288;2023-03-05T10:03:13;10.10;;;7.00;;
76714;SDS011;65644;44.990;20.288;2023-03-05T10:05:45;11.25;;;7.63;;
76714;SDS011;65644;44.990;20.288;2023-03-05T10:08:14;8.77;;;6.80;;
76714;SDS011;65644;44.990;20.288;2023-03-05T10:10:43;9.57;;;6.43;;
76714;SDS011;65644;44.990;20.288;2023-03-05T10:13:31;8.07;;;6.88;;
76714;SDS011;65644;44.990;20.288;2023-03-05T10:16:19;9.63;;;6.30;;
76714;SDS011;65644;44.990;20.288;2023-03-05T10:26:29;8.63;;;6.57;;
76714;SDS011;65644;44.990;20.288;2023-03-05T10:31:35;8.88;;;6.82;;
76714;SDS011;65644;44.990;20.288;2023-03-05T10:44:40;8.85;;;6.93;;
76714;SDS011;65644;44.990;20.288;2023-03-05T10:49:58;6.93;;;5.85;;
76714;SDS011;65644;44.990;20.288;2023-03-05T10:52:32;10.05;;;6.00;;
76714;SDS011;65644;44.990;20.288;2023-03-05T10:57:26;8.95;;;7.05;;
76714;SDS011;65644;44.990;20.288;2023-03-05T10:59:56;6.15;;;5.15;;
76714;SDS011;65644;44.990;20.288;2023-03-05T11:02:23;8.20;;;5.47;;
76714;SDS011;65644;44.990;20.288;2023-03-05T11:04:50;9.60;;;6.70;;
76714;SDS011;65644;44.990;20.288;2023-03-05T11:09:42;7.53;;;4.93;;
76714;SDS011;65644;44.990;20.288;2023-03-05T11:12:32;12.05;;;6.30;;
76714;SDS011;65644;44.990;20.288;2023-03-05T11:19:54;7.53;;;5.15;;
76714;SDS011;65644;44.990;20.288;2023-03-05T11:22:21;6.53;;;4.82;;
76714;SDS011;65644;44.990;20.288;2023-03-05T11:25:21;9.10;;;5.13;;
76714;SDS011;65644;44.990;20.288;2023-03-05T11:27:51;8.63;;;6.70;;
76714;SDS011;65644;44.990;20.288;2023-03-05T11:32:45;6.00;;;5.40;;
76714;SDS011;65644;44.990;20.288;2023-03-05T11:35:25;8.90;;;5.68;;
76714;SDS011;65644;44.990;20.288;2023-03-05T11:38:04;7.50;;;5.53;;
76714;SDS011;65644;44.990;20.288;2023-03-05T11:40:31;8.02;;;5.72;;
76714;SDS011;65644;44.990;20.288;2023-03-05T11:42:59;7.97;;;5.65;;
76714;SDS011;65644;44.990;20.288;2023-03-05T11:45:27;8.85;;;5.57;;
76714;SDS011;65644;44.990;20.288;2023-03-05T11:48:07;8.00;;;6.43;;
76714;SDS011;65644;44.990;20.288;2023-03-05T11:50:34;8.57;;;6.32;;
76714;SDS011;65644;44.990;20.288;2023-03-05T11:53:11;8.45;;;6.25;;
76714;SDS011;65644;44.990;20.288;2023-03-05T12:00:49;11.55;;;6.20;;
76714;SDS011;65644;44.990;20.288;2023-03-05T12:03:23;9.43;;;6.85;;
76714;SDS011;65644;44.990;20.288;2023-03-05T12:05:51;6.90;;;6.03;;
76714;SDS011;65644;44.990;20.288;2023-03-05T12:08:21;11.18;;;6.93;;
76714;SDS011;65644;44.990;20.288;2023-03-05T12:10:49;10.00;;;6.20;;
76714;SDS011;65644;44.990;20.288;2023-03-05T12:13:21;9.05;;;6.43;;
76714;SDS011;65644;44.990;20.288;2023-03-05T12:16:00;10.65;;;7.30;;
76714;SDS011;65644;44.990;20.288;2023-03-05T12:21:07;10.40;;;7.10;;
76714;SDS011;65644;44.990;20.288;2023-03-05T12:23:46;9.23;;;6.70;;
76714;SDS011;65644;44.990;20.288;2023-03-05T12:26:12;7.93;;;7.03;;
76714;SDS011;65644;44.990;20.288;2023-03-05T12:31:26;16.85;;;12.15;;
76714;SDS011;65644;44.990;20.288;2023-03-05T12:33:53;12.10;;;7.65;;
76714;SDS011;65644;44.990;20.288;2023-03-05T12:46:31;8.07;;;6.95;;
76714;SDS011;65644;44.990;20.288;2023-03-05T12:48:59;7.65;;;6.30;;
76714;SDS011;65644;44.990;20.288;2023-03-05T12:51:37;8.88;;;6.45;;
76714;SDS011;65644;44.990;20.288;2023-03-05T12:56:50;11.85;;;7.50;;
76714;SDS011;65644;44.990;20.288;2023-03-05T12:59:17;9.18;;;6.45;;
76714;SDS011;65644;44.990;20.288;2023-03-05T13:01:45;8.73;;;6.15;;
76714;SDS011;65644;44.990;20.288;2023-03-05T13:04:25;9.15;;;7.35;;
76714;SDS011;65644;44.990;20.288;2023-03-05T13:07:04;9.23;;;7.00;;
76714;SDS011;65644;44.990;20.288;2023-03-05T13:09:33;10.48;;;8.18;;
76714;SDS011;65644;44.990;20.288;2023-03-05T13:12:00;9.93;;;7.43;;
76714;SDS011;65644;44.990;20.288;2023-03-05T13:16:59;10.35;;;7.57;;
76714;SDS011;65644;44.990;20.288;2023-03-05T13:19:26;8.10;;;7.20;;
76714;SDS011;65644;44.990;20.288;2023-03-05T13:21:59;7.47;;;5.97;;
76714;SDS011;65644;44.990;20.288;2023-03-05T13:24:25;11.15;;;6.55;;
76714;SDS011;65644;44.990;20.288;2023-03-05T13:26:53;8.80;;;6.18;;
76714;SDS011;65644;44.990;20.288;2023-03-05T13:29:23;10.65;;;7.25;;
76714;SDS011;65644;44.990;20.288;2023-03-05T13:31:55;8.18;;;6.25;;
76714;SDS011;65644;44.990;20.288;2023-03-05T13:36:51;7.95;;;5.70;;
76714;SDS011;65644;44.990;20.288;2023-03-05T13:39:20;10.13;;;6.18;;
76714;SDS011;65644;44.990;20.288;2023-03-05T13:41:56;9.55;;;6.63;;
76714;SDS011;65644;44.990;20.288;2023-03-05T13:44:23;8.10;;;6.15;;
76714;SDS011;65644;44.990;20.288;2023-03-05T13:46:49;9.13;;;6.10;;
76714;SDS011;65644;44.990;20.288;2023-03-05T13:49:22;7.75;;;5.57;;
76714;SDS011;65644;44.990;20.288;2023-03-05T13:51:52;7.43;;;6.20;;
76714;SDS011;65644;44.990;20.288;2023-03-05T13:54:19;9.88;;;6.30;;
76714;SDS011;65644;44.990;20.288;2023-03-05T13:59:18;8.32;;;6.22;;
76714;SDS011;65644;44.990;20.288;2023-03-05T14:01:45;8.55;;;5.93;;
76714;SDS011;65644;44.990;20.288;2023-03-05T14:06:48;32.38;;;23.85;;
76714;SDS011;65644;44.990;20.288;2023-03-05T14:09:17;10.85;;;7.55;;
76714;SDS011;65644;44.990;20.288;2023-03-05T14:11:54;6.75;;;5.97;;
76714;SDS011;65644;44.990;20.288;2023-03-05T14:14:20;10.80;;;8.30;;
76714;SDS011;65644;44.990;20.288;2023-03-05T14:16:47;9.98;;;6.45;;
76714;SDS011;65644;44.990;20.288;2023-03-05T14:21:55;8.85;;;5.65;;
76714;SDS011;65644;44.990;20.288;2023-03-05T14:24:22;8.23;;;6.15;;
76714;SDS011;65644;44.990;20.288;2023-03-05T14:29:17;17.83;;;12.27;;
76714;SDS011;65644;44.990;20.288;2023-03-05T14:34:54;14.35;;;8.52;;
76714;SDS011;65644;44.990;20.288;2023-03-05T14:37:22;33.42;;;25.10;;
76714;SDS011;65644;44.990;20.288;2023-03-05T14:39:52;8.60;;;5.97;;
76714;SDS011;65644;44.990;20.288;2023-03-05T14:47:23;9.85;;;5.63;;
76714;SDS011;65644;44.990;20.288;2023-03-05T14:49:49;9.43;;;6.13;;
76714;SDS011;65644;44.990;20.288;2023-03-05T14:52:16;10.65;;;5.97;;
76714;SDS011;65644;44.990;20.288;2023-03-05T14:54:43;8.93;;;6.18;;
76714;SDS011;65644;44.990;20.288;2023-03-05T14:57:14;10.55;;;7.25;;
76714;SDS011;65644;44.990;20.288;2023-03-05T14:59:41;11.52;;;6.85;;
76714;SDS011;65644;44.990;20.288;2023-03-05T15:02:17;9.63;;;6.78;;
76714;SDS011;65644;44.990;20.288;2023-03-05T15:04:43;9.00;;;5.57;;
76714;SDS011;65644;44.990;20.288;2023-03-05T15:07:13;9.52;;;6.93;;
76714;SDS011;65644;44.990;20.288;2023-03-05T15:09:41;10.50;;;7.45;;
76714;SDS011;65644;44.990;20.288;2023-03-05T15:12:08;10.13;;;6.65;;
76714;SDS011;65644;44.990;20.288;2023-03-05T15:14:35;42.70;;;24.67;;
76714;SDS011;65644;44.990;20.288;2023-03-05T15:17:01;12.32;;;8.82;;
76714;SDS011;65644;44.990;20.288;2023-03-05T15:19:27;10.10;;;6.20;;
76714;SDS011;65644;44.990;20.288;2023-03-05T15:21:53;11.05;;;6.80;;
76714;SDS011;65644;44.990;20.288;2023-03-05T15:24:19;10.68;;;7.50;;
76714;SDS011;65644;44.990;20.288;2023-03-05T15:26:45;10.27;;;7.10;;
76714;SDS011;65644;44.990;20.288;2023-03-05T15:29:11;12.77;;;8.95;;
76714;SDS011;65644;44.990;20.288;2023-03-05T15:31:37;8.13;;;6.75;;
76714;SDS011;65644;44.990;20.288;2023-03-05T15:34:04;9.75;;;7.00;;
76714;SDS011;65644;44.990;20.288;2023-03-05T15:36:31;10.45;;;7.38;;
76714;SDS011;65644;44.990;20.288;2023-03-05T15:38:57;15.65;;;7.35;;
76714;SDS011;65644;44.990;20.288;2023-03-05T15:41:23;10.32;;;6.32;;
76714;SDS011;65644;44.990;20.288;2023-03-05T15:43:49;9.60;;;6.10;;
76714;SDS011;65644;44.990;20.288;2023-03-05T15:46:15;11.15;;;6.68;;
76714;SDS011;65644;44.990;20.288;2023-03-05T15:48:41;11.52;;;6.50;;
76714;SDS011;65644;44.990;20.288;2023-03-05T15:51:13;9.70;;;7.22;;